sensor_id;sensor_type;location;lat;lon;timestamp;P1;durP1;ratioP1;P2;durP2;ratioP2
24279;SDS011;12395;42.808;23.408;2023-02-28T00:02:12;32.25;;;14.68;;
24279;SDS011;12395;42.808;23.408;2023-02-28T00:04:37;33.92;;;14.48;;
24279;SDS011;12395;42.808;23.408;2023-02-28T00:07:03;33.75;;;14.57;;
24279;SDS011;12395;42.808;23.408;2023-02-28T00:09:28;31.08;;;14.55;;
24279;SDS011;12395;42.808;23.408;2023-02-28T00:11:53;32.15;;;14.63;;
24279;SDS011;12395;42.808;23.408;2023-02-28T00:14:19;30.05;;;14.38;;
24279;SDS011;12395;42.808;23.408;2023-02-28T00:16:44;31.73;;;14.40;;
24279;SDS011;12395;42.808;23.408;2023-02-28T00:19:09;27.75;;;13.18;;
24279;SDS011;12395;42.808;23.408;2023-02-28T00:21:38;28.25;;;12.85;;
24279;SDS011;12395;42.808;23.408;2023-02-28T00:24:05;26.88;;;12.68;;
24279;SDS011;12395;42.808;23.408;2023-02-28T00:26:32;26.50;;;13.38;;
24279;SDS011;12395;42.808;23.408;2023-02-28T00:28:57;32.25;;;14.10;;
24279;SDS011;12395;42.808;23.408;2023-02-28T00:31:23;31.85;;;14.75;;
24279;SDS011;12395;42.808;23.408;2023-02-28T00:33:48;33.53;;;15.27;;
24279;SDS011;12395;42.808;23.408;2023-02-28T00:36:15;33.65;;;15.70;;
24279;SDS011;12395;42.808;23.408;2023-02-28T00:38:41;30.83;;;14.93;;
24279;SDS011;12395;42.808;23.408;2023-02-28T00:41:07;33.63;;;15.73;;
24279;SDS011;12395;42.808;23.408;2023-02-28T00:43:33;33.80;;;15.70;;
24279;SDS011;12395;42.808;23.408;2023-02-28T00:46:00;30.95;;;14.75;;
24279;SDS011;12395;42.808;23.408;2023-02-28T00:48:25;32.38;;;15.18;;
24279;SDS011;12395;42.808;23.408;2023-02-28T00:50:51;31.40;;;14.82;;
24279;SDS011;12395;42.808;23.408;2023-02-28T00:53:16;25.85;;;13.88;;
24279;SDS011;12395;42.808;23.408;2023-02-28T00:55:42;29.95;;;14.05;;
24279;SDS011;12395;42.808;23.408;2023-02-28T00:58:07;30.42;;;14.65;;
24279;SDS011;12395;42.808;23.408;2023-02-28T01:00:32;29.90;;;14.63;;
24279;SDS011;12395;42.808;23.408;2023-02-28T01:02:58;25.58;;;12.40;;
24279;SDS011;12395;42.808;23.408;2023-02-28T01:05:23;27.17;;;12.77;;
24279;SDS011;12395;42.808;23.408;2023-02-28T01:07:48;31.77;;;15.18;;
24279;SDS011;12395;42.808;23.408;2023-02-28T01:10:14;35.38;;;15.60;;
24279;SDS011;12395;42.808;23.408;2023-02-28T01:12:40;36.17;;;16.65;;
24279;SDS011;12395;42.808;23.408;2023-02-28T01:15:05;37.13;;;15.82;;
24279;SDS011;12395;42.808;23.408;2023-02-28T01:17:31;35.47;;;15.60;;
24279;SDS011;12395;42.808;23.408;2023-02-28T01:19:56;39.45;;;16.40;;
24279;SDS011;12395;42.808;23.408;2023-02-28T01:22:22;36.25;;;15.90;;
24279;SDS011;12395;42.808;23.408;2023-02-28T01:24:48;37.40;;;16.25;;
24279;SDS011;12395;42.808;23.408;2023-02-28T01:27:13;35.10;;;16.38;;
24279;SDS011;12395;42.808;23.408;2023-02-28T01:29:38;36.35;;;17.08;;
24279;SDS011;12395;42.808;23.408;2023-02-28T01:32:04;38.30;;;18.10;;
24279;SDS011;12395;42.808;23.408;2023-02-28T01:34:30;39.63;;;18.98;;
24279;SDS011;12395;42.808;23.408;2023-02-28T01:36:55;37.42;;;18.30;;
24279;SDS011;12395;42.808;23.408;2023-02-28T01:39:23;40.00;;;18.67;;
24279;SDS011;12395;42.808;23.408;2023-02-28T01:41:49;224.80;;;25.48;;
24279;SDS011;12395;42.808;23.408;2023-02-28T01:47:17;344.98;;;32.10;;
24279;SDS011;12395;42.808;23.408;2023-02-28T01:49:43;289.30;;;28.63;;
24279;SDS011;12395;42.808;23.408;2023-02-28T01:52:09;190.95;;;22.73;;
24279;SDS011;12395;42.808;23.408;2023-02-28T01:54:39;190.60;;;24.63;;
24279;SDS011;12395;42.808;23.408;2023-02-28T01:57:06;109.20;;;20.52;;
24279;SDS011;12395;42.808;23.408;2023-02-28T01:59:37;82.22;;;18.55;;
24279;SDS011;12395;42.808;23.408;2023-02-28T02:02:11;67.28;;;17.92;;
24279;SDS011;12395;42.808;23.408;2023-02-28T02:05:12;123.18;;;22.10;;
24279;SDS011;12395;42.808;23.408;2023-02-28T02:07:35;69.50;;;18.02;;
24279;SDS011;12395;42.808;23.408;2023-02-28T02:15:32;255.70;;;26.60;;
24279;SDS011;12395;42.808;23.408;2023-02-28T02:18:05;62.08;;;16.25;;
24279;SDS011;12395;42.808;23.408;2023-02-28T02:40:53;60.65;;;13.80;;
24279;SDS011;12395;42.808;23.408;2023-02-28T02:43:35;22.30;;;10.30;;
24279;SDS011;12395;42.808;23.408;2023-02-28T02:46:06;17.42;;;8.75;;
24279;SDS011;12395;42.808;23.408;2023-02-28T02:48:38;16.52;;;8.40;;
24279;SDS011;12395;42.808;23.408;2023-02-28T02:51:07;16.98;;;7.78;;
24279;SDS011;12395;42.808;23.408;2023-02-28T02:53:46;18.70;;;8.07;;
24279;SDS011;12395;42.808;23.408;2023-02-28T02:56:19;16.85;;;8.07;;
24279;SDS011;12395;42.808;23.408;2023-02-28T02:58:49;14.32;;;7.07;;
24279;SDS011;12395;42.808;23.408;2023-02-28T03:01:18;15.60;;;8.00;;
24279;SDS011;12395;42.808;23.408;2023-02-28T03:04:16;15.57;;;7.60;;
24279;SDS011;12395;42.808;23.408;2023-02-28T03:06:41;14.93;;;7.50;;
24279;SDS011;12395;42.808;23.408;2023-02-28T03:09:06;14.13;;;7.25;;
24279;SDS011;12395;42.808;23.408;2023-02-28T03:11:32;16.05;;;8.02;;
24279;SDS011;12395;42.808;23.408;2023-02-28T03:15:01;15.43;;;8.13;;
24279;SDS011;12395;42.808;23.408;2023-02-28T03:22:11;16.50;;;8.40;;
24279;SDS011;12395;42.808;23.408;2023-02-28T03:27:30;15.90;;;7.90;;
24279;SDS011;12395;42.808;23.408;2023-02-28T03:30:03;16.30;;;8.10;;
24279;SDS011;12395;42.808;23.408;2023-02-28T03:32:35;15.57;;;7.63;;
24279;SDS011;12395;42.808;23.408;2023-02-28T03:37:35;18.20;;;8.80;;
24279;SDS011;12395;42.808;23.408;2023-02-28T03:40:14;20.73;;;9.60;;
24279;SDS011;12395;42.808;23.408;2023-02-28T03:42:43;18.93;;;9.43;;
24279;SDS011;12395;42.808;23.408;2023-02-28T03:45:23;15.80;;;8.27;;
24279;SDS011;12395;42.808;23.408;2023-02-28T03:48:01;13.73;;;6.77;;
24279;SDS011;12395;42.808;23.408;2023-02-28T03:50:38;16.52;;;8.18;;
24279;SDS011;12395;42.808;23.408;2023-02-28T03:53:16;17.10;;;8.97;;
24279;SDS011;12395;42.808;23.408;2023-02-28T03:55:50;17.50;;;8.50;;
24279;SDS011;12395;42.808;23.408;2023-02-28T03:58:28;17.17;;;8.57;;
24279;SDS011;12395;42.808;23.408;2023-02-28T04:01:11;19.80;;;9.10;;
24279;SDS011;12395;42.808;23.408;2023-02-28T04:03:42;125.67;;;15.47;;
24279;SDS011;12395;42.808;23.408;2023-02-28T04:06:08;126.50;;;14.47;;
24279;SDS011;12395;42.808;23.408;2023-02-28T04:08:41;65.30;;;11.40;;
24279;SDS011;12395;42.808;23.408;2023-02-28T04:11:08;31.37;;;10.57;;
24279;SDS011;12395;42.808;23.408;2023-02-28T04:14:12;22.70;;;10.93;;
24279;SDS011;12395;42.808;23.408;2023-02-28T04:16:39;22.83;;;10.40;;
24279;SDS011;12395;42.808;23.408;2023-02-28T04:21:36;92.47;;;13.73;;
24279;SDS011;12395;42.808;23.408;2023-02-28T04:24:08;52.53;;;12.33;;
24279;SDS011;12395;42.808;23.408;2023-02-28T04:26:39;18.30;;;8.83;;
24279;SDS011;12395;42.808;23.408;2023-02-28T04:29:06;12.63;;;5.95;;
24279;SDS011;12395;42.808;23.408;2023-02-28T04:31:32;12.43;;;5.70;;
24279;SDS011;12395;42.808;23.408;2023-02-28T04:33:58;16.27;;;6.97;;
24279;SDS011;12395;42.808;23.408;2023-02-28T04:36:24;16.20;;;6.47;;
24279;SDS011;12395;42.808;23.408;2023-02-28T04:38:51;10.52;;;4.72;;
24279;SDS011;12395;42.808;23.408;2023-02-28T04:41:16;8.83;;;3.83;;
24279;SDS011;12395;42.808;23.408;2023-02-28T04:43:42;8.67;;;3.33;;
24279;SDS011;12395;42.808;23.408;2023-02-28T04:46:08;8.30;;;3.30;;
24279;SDS011;12395;42.808;23.408;2023-02-28T04:48:36;7.77;;;3.70;;
24279;SDS011;12395;42.808;23.408;2023-02-28T04:51:03;11.27;;;4.00;;
24279;SDS011;12395;42.808;23.408;2023-02-28T04:55:56;6.60;;;3.30;;
24279;SDS011;12395;42.808;23.408;2023-02-28T04:58:22;9.33;;;4.73;;
24279;SDS011;12395;42.808;23.408;2023-02-28T05:00:49;9.83;;;4.97;;
24279;SDS011;12395;42.808;23.408;2023-02-28T05:03:14;10.60;;;4.53;;
24279;SDS011;12395;42.808;23.408;2023-02-28T05:05:40;10.10;;;5.13;;
24279;SDS011;12395;42.808;23.408;2023-02-28T05:08:05;10.63;;;5.23;;
24279;SDS011;12395;42.808;23.408;2023-02-28T05:10:31;13.10;;;5.87;;
24279;SDS011;12395;42.808;23.408;2023-02-28T05:12:57;11.50;;;5.50;;
24279;SDS011;12395;42.808;23.408;2023-02-28T05:15:22;12.07;;;5.50;;
24279;SDS011;12395;42.808;23.408;2023-02-28T05:17:48;10.85;;;5.18;;
24279;SDS011;12395;42.808;23.408;2023-02-28T05:20:13;9.43;;;5.32;;
24279;SDS011;12395;42.808;23.408;2023-02-28T05:22:42;31.92;;;17.67;;
24279;SDS011;12395;42.808;23.408;2023-02-28T05:25:10;30.27;;;16.15;;
24279;SDS011;12395;42.808;23.408;2023-02-28T05:27:37;29.98;;;15.57;;
24279;SDS011;12395;42.808;23.408;2023-02-28T05:30:02;29.33;;;13.80;;
24279;SDS011;12395;42.808;23.408;2023-02-28T05:32:29;22.02;;;12.32;;
24279;SDS011;12395;42.808;23.408;2023-02-28T05:34:54;28.42;;;14.07;;
24279;SDS011;12395;42.808;23.408;2023-02-28T05:37:20;26.77;;;13.98;;
24279;SDS011;12395;42.808;23.408;2023-02-28T05:39:46;24.80;;;13.05;;
24279;SDS011;12395;42.808;23.408;2023-02-28T05:42:11;22.45;;;13.20;;
24279;SDS011;12395;42.808;23.408;2023-02-28T05:44:36;25.20;;;14.18;;
24279;SDS011;12395;42.808;23.408;2023-02-28T05:47:02;24.90;;;14.73;;
24279;SDS011;12395;42.808;23.408;2023-02-28T05:49:27;21.65;;;12.23;;
24279;SDS011;12395;42.808;23.408;2023-02-28T05:51:53;25.17;;;14.25;;
24279;SDS011;12395;42.808;23.408;2023-02-28T05:54:18;22.98;;;12.95;;
24279;SDS011;12395;42.808;23.408;2023-02-28T05:56:44;22.38;;;11.77;;
24279;SDS011;12395;42.808;23.408;2023-02-28T05:59:11;18.48;;;10.88;;
24279;SDS011;12395;42.808;23.408;2023-02-28T06:01:44;32.08;;;19.17;;
24279;SDS011;12395;42.808;23.408;2023-02-28T06:04:13;17.38;;;9.65;;
24279;SDS011;12395;42.808;23.408;2023-02-28T06:06:46;16.33;;;9.57;;
24279;SDS011;12395;42.808;23.408;2023-02-28T06:09:12;16.85;;;9.80;;
24279;SDS011;12395;42.808;23.408;2023-02-28T06:11:38;42.67;;;25.10;;
24279;SDS011;12395;42.808;23.408;2023-02-28T06:14:05;52.70;;;27.58;;
24279;SDS011;12395;42.808;23.408;2023-02-28T06:16:32;87.85;;;42.33;;
24279;SDS011;12395;42.808;23.408;2023-02-28T06:18:59;41.40;;;24.30;;
24279;SDS011;12395;42.808;23.408;2023-02-28T06:21:28;40.58;;;23.45;;
24279;SDS011;12395;42.808;23.408;2023-02-28T06:23:54;32.47;;;18.00;;
24279;SDS011;12395;42.808;23.408;2023-02-28T06:26:21;26.60;;;15.27;;
24279;SDS011;12395;42.808;23.408;2023-02-28T06:28:46;23.30;;;13.30;;
24279;SDS011;12395;42.808;23.408;2023-02-28T06:31:12;25.10;;;13.48;;
24279;SDS011;12395;42.808;23.408;2023-02-28T06:33:40;25.98;;;13.88;;
24279;SDS011;12395;42.808;23.408;2023-02-28T06:36:07;23.80;;;13.13;;
24279;SDS011;12395;42.808;23.408;2023-02-28T06:38:35;22.65;;;11.63;;
24279;SDS011;12395;42.808;23.408;2023-02-28T06:41:01;18.70;;;10.18;;
24279;SDS011;12395;42.808;23.408;2023-02-28T06:43:28;18.98;;;10.05;;
24279;SDS011;12395;42.808;23.408;2023-02-28T06:45:55;19.25;;;10.20;;
24279;SDS011;12395;42.808;23.408;2023-02-28T06:48:21;19.92;;;10.40;;
24279;SDS011;12395;42.808;23.408;2023-02-28T06:50:48;21.50;;;11.82;;
24279;SDS011;12395;42.808;23.408;2023-02-28T06:53:13;23.92;;;13.43;;
24279;SDS011;12395;42.808;23.408;2023-02-28T06:55:39;25.25;;;14.20;;
24279;SDS011;12395;42.808;23.408;2023-02-28T06:58:05;25.35;;;14.18;;
24279;SDS011;12395;42.808;23.408;2023-02-28T07:00:39;21.67;;;11.52;;
24279;SDS011;12395;42.808;23.408;2023-02-28T07:03:06;23.50;;;11.95;;
24279;SDS011;12395;42.808;23.408;2023-02-28T07:05:31;22.83;;;11.85;;
24279;SDS011;12395;42.808;23.408;2023-02-28T07:07:56;21.40;;;12.02;;
24279;SDS011;12395;42.808;23.408;2023-02-28T07:10:22;34.58;;;20.40;;
24279;SDS011;12395;42.808;23.408;2023-02-28T07:12:47;41.47;;;23.98;;
24279;SDS011;12395;42.808;23.408;2023-02-28T07:15:13;38.70;;;22.65;;
24279;SDS011;12395;42.808;23.408;2023-02-28T07:17:38;36.20;;;21.52;;
24279;SDS011;12395;42.808;23.408;2023-02-28T07:20:04;31.70;;;15.93;;
24279;SDS011;12395;42.808;23.408;2023-02-28T07:22:29;35.65;;;17.52;;
24279;SDS011;12395;42.808;23.408;2023-02-28T07:24:55;39.40;;;18.58;;
24279;SDS011;12395;42.808;23.408;2023-02-28T07:27:20;45.05;;;22.50;;
24279;SDS011;12395;42.808;23.408;2023-02-28T07:29:50;44.53;;;25.20;;
24279;SDS011;12395;42.808;23.408;2023-02-28T07:32:16;47.35;;;24.45;;
24279;SDS011;12395;42.808;23.408;2023-02-28T07:34:41;37.28;;;18.92;;
24279;SDS011;12395;42.808;23.408;2023-02-28T07:37:07;35.92;;;18.42;;
24279;SDS011;12395;42.808;23.408;2023-02-28T07:39:32;38.88;;;17.85;;
24279;SDS011;12395;42.808;23.408;2023-02-28T07:41:57;30.88;;;15.30;;
24279;SDS011;12395;42.808;23.408;2023-02-28T07:44:24;30.13;;;15.32;;
24279;SDS011;12395;42.808;23.408;2023-02-28T07:46:51;31.25;;;14.68;;
24279;SDS011;12395;42.808;23.408;2023-02-28T07:49:17;33.50;;;15.15;;
24279;SDS011;12395;42.808;23.408;2023-02-28T07:51:43;30.60;;;14.90;;
24279;SDS011;12395;42.808;23.408;2023-02-28T07:54:08;28.48;;;14.77;;
24279;SDS011;12395;42.808;23.408;2023-02-28T07:56:34;27.88;;;14.57;;
24279;SDS011;12395;42.808;23.408;2023-02-28T07:58:59;28.25;;;13.32;;
24279;SDS011;12395;42.808;23.408;2023-02-28T08:01:26;32.13;;;13.93;;
24279;SDS011;12395;42.808;23.408;2023-02-28T08:03:51;32.60;;;14.77;;
24279;SDS011;12395;42.808;23.408;2023-02-28T08:06:20;33.90;;;16.30;;
24279;SDS011;12395;42.808;23.408;2023-02-28T08:08:47;36.38;;;17.00;;
24279;SDS011;12395;42.808;23.408;2023-02-28T08:11:13;34.55;;;16.38;;
24279;SDS011;12395;42.808;23.408;2023-02-28T08:13:39;33.75;;;16.85;;
24279;SDS011;12395;42.808;23.408;2023-02-28T08:16:04;36.42;;;17.05;;
24279;SDS011;12395;42.808;23.408;2023-02-28T08:18:30;39.10;;;17.55;;
24279;SDS011;12395;42.808;23.408;2023-02-28T08:20:57;33.63;;;16.77;;
24279;SDS011;12395;42.808;23.408;2023-02-28T08:23:22;32.22;;;15.90;;
24279;SDS011;12395;42.808;23.408;2023-02-28T08:28:21;34.58;;;16.17;;
24279;SDS011;12395;42.808;23.408;2023-02-28T08:30:47;33.30;;;14.68;;
24279;SDS011;12395;42.808;23.408;2023-02-28T08:33:14;30.45;;;14.23;;
24279;SDS011;12395;42.808;23.408;2023-02-28T08:35:39;30.77;;;14.13;;
24279;SDS011;12395;42.808;23.408;2023-02-28T08:38:04;30.00;;;13.40;;
24279;SDS011;12395;42.808;23.408;2023-02-28T08:40:30;29.90;;;14.00;;
24279;SDS011;12395;42.808;23.408;2023-02-28T08:42:56;31.95;;;14.38;;
24279;SDS011;12395;42.808;23.408;2023-02-28T08:45:21;33.35;;;14.55;;
24279;SDS011;12395;42.808;23.408;2023-02-28T08:47:47;31.13;;;13.95;;
24279;SDS011;12395;42.808;23.408;2023-02-28T08:50:13;33.08;;;14.25;;
24279;SDS011;12395;42.808;23.408;2023-02-28T08:52:41;32.72;;;14.35;;
24279;SDS011;12395;42.808;23.408;2023-02-28T08:55:08;30.05;;;13.50;;
24279;SDS011;12395;42.808;23.408;2023-02-28T08:57:34;31.42;;;13.57;;
24279;SDS011;12395;42.808;23.408;2023-02-28T09:00:03;28.98;;;12.60;;
24279;SDS011;12395;42.808;23.408;2023-02-28T09:02:30;28.58;;;13.02;;
24279;SDS011;12395;42.808;23.408;2023-02-28T09:04:56;28.50;;;12.48;;
24279;SDS011;12395;42.808;23.408;2023-02-28T09:07:23;29.48;;;12.93;;
24279;SDS011;12395;42.808;23.408;2023-02-28T09:09:49;26.63;;;12.18;;
24279;SDS011;12395;42.808;23.408;2023-02-28T09:12:22;27.52;;;11.90;;
24279;SDS011;12395;42.808;23.408;2023-02-28T09:14:52;26.05;;;12.38;;
24279;SDS011;12395;42.808;23.408;2023-02-28T09:17:18;28.58;;;13.30;;
24279;SDS011;12395;42.808;23.408;2023-02-28T09:19:44;29.67;;;13.68;;
24279;SDS011;12395;42.808;23.408;2023-02-28T09:22:10;28.58;;;12.27;;
24279;SDS011;12395;42.808;23.408;2023-02-28T09:24:38;28.38;;;12.57;;
24279;SDS011;12395;42.808;23.408;2023-02-28T09:29:30;24.20;;;11.15;;
24279;SDS011;12395;42.808;23.408;2023-02-28T09:31:56;28.50;;;13.03;;
24279;SDS011;12395;42.808;23.408;2023-02-28T09:34:24;26.85;;;12.70;;
24279;SDS011;12395;42.808;23.408;2023-02-28T09:36:50;29.02;;;13.05;;
24279;SDS011;12395;42.808;23.408;2023-02-28T09:39:19;29.30;;;13.05;;
24279;SDS011;12395;42.808;23.408;2023-02-28T09:41:47;29.45;;;13.02;;
24279;SDS011;12395;42.808;23.408;2023-02-28T09:46:54;29.15;;;13.13;;
24279;SDS011;12395;42.808;23.408;2023-02-28T09:49:25;27.45;;;12.27;;
24279;SDS011;12395;42.808;23.408;2023-02-28T09:52:03;23.33;;;11.07;;
24279;SDS011;12395;42.808;23.408;2023-02-28T09:54:34;24.05;;;10.18;;
24279;SDS011;12395;42.808;23.408;2023-02-28T09:57:02;24.02;;;11.38;;
24279;SDS011;12395;42.808;23.408;2023-02-28T09:59:39;21.90;;;10.57;;
24279;SDS011;12395;42.808;23.408;2023-02-28T10:04:59;24.48;;;10.65;;
24279;SDS011;12395;42.808;23.408;2023-02-28T10:07:45;23.55;;;10.18;;
24279;SDS011;12395;42.808;23.408;2023-02-28T10:10:32;21.60;;;10.00;;
24279;SDS011;12395;42.808;23.408;2023-02-28T10:13:11;21.48;;;10.50;;
24279;SDS011;12395;42.808;23.408;2023-02-28T10:15:41;21.38;;;10.05;;
24279;SDS011;12395;42.808;23.408;2023-02-28T10:18:11;22.48;;;9.95;;
24279;SDS011;12395;42.808;23.408;2023-02-28T10:20:41;22.10;;;10.65;;
24279;SDS011;12395;42.808;23.408;2023-02-28T10:25:44;20.27;;;9.32;;
24279;SDS011;12395;42.808;23.408;2023-02-28T10:28:14;21.08;;;9.75;;
24279;SDS011;12395;42.808;23.408;2023-02-28T10:33:13;19.10;;;9.23;;
24279;SDS011;12395;42.808;23.408;2023-02-28T10:35:44;21.90;;;8.90;;
24279;SDS011;12395;42.808;23.408;2023-02-28T10:38:14;21.27;;;9.13;;
24279;SDS011;12395;42.808;23.408;2023-02-28T10:40:42;18.90;;;8.63;;
24279;SDS011;12395;42.808;23.408;2023-02-28T10:45:51;17.02;;;8.15;;
24279;SDS011;12395;42.808;23.408;2023-02-28T10:50:59;17.23;;;7.30;;
24279;SDS011;12395;42.808;23.408;2023-02-28T10:53:59;16.95;;;8.23;;
24279;SDS011;12395;42.808;23.408;2023-02-28T10:56:20;20.67;;;8.18;;
24279;SDS011;12395;42.808;23.408;2023-02-28T10:58:58;20.83;;;8.70;;
24279;SDS011;12395;42.808;23.408;2023-02-28T11:01:43;19.85;;;9.45;;
24279;SDS011;12395;42.808;23.408;2023-02-28T11:04:18;19.35;;;9.65;;
24279;SDS011;12395;42.808;23.408;2023-02-28T11:06:47;17.05;;;8.50;;
24279;SDS011;12395;42.808;23.408;2023-02-28T11:09:35;19.30;;;9.50;;
24279;SDS011;12395;42.808;23.408;2023-02-28T11:12:01;20.33;;;9.00;;
24279;SDS011;12395;42.808;23.408;2023-02-28T11:14:30;20.33;;;9.35;;
24279;SDS011;12395;42.808;23.408;2023-02-28T11:17:00;18.52;;;9.85;;
24279;SDS011;12395;42.808;23.408;2023-02-28T11:19:38;22.17;;;10.45;;
24279;SDS011;12395;42.808;23.408;2023-02-28T11:22:10;20.65;;;10.75;;
24279;SDS011;12395;42.808;23.408;2023-02-28T11:24:44;23.65;;;10.77;;
24279;SDS011;12395;42.808;23.408;2023-02-28T11:27:59;22.77;;;10.43;;
24279;SDS011;12395;42.808;23.408;2023-02-28T11:30:02;21.88;;;10.52;;
24279;SDS011;12395;42.808;23.408;2023-02-28T11:32:29;19.48;;;9.80;;
24279;SDS011;12395;42.808;23.408;2023-02-28T11:37:37;25.20;;;10.90;;
24279;SDS011;12395;42.808;23.408;2023-02-28T11:45:20;23.00;;;10.77;;
24279;SDS011;12395;42.808;23.408;2023-02-28T11:50:16;19.45;;;9.45;;
24279;SDS011;12395;42.808;23.408;2023-02-28T11:55:54;22.25;;;10.10;;
24279;SDS011;12395;42.808;23.408;2023-02-28T11:58:47;24.38;;;11.30;;
24279;SDS011;12395;42.808;23.408;2023-02-28T12:07:08;22.42;;;9.50;;
24279;SDS011;12395;42.808;23.408;2023-02-28T12:09:53;22.10;;;9.65;;
24279;SDS011;12395;42.808;23.408;2023-02-28T12:20:27;22.13;;;9.95;;
24279;SDS011;12395;42.808;23.408;2023-02-28T12:28:14;21.30;;;10.07;;
24279;SDS011;12395;42.808;23.408;2023-02-28T12:30:49;23.42;;;10.25;;
24279;SDS011;12395;42.808;23.408;2023-02-28T12:33:20;21.95;;;9.43;;
24279;SDS011;12395;42.808;23.408;2023-02-28T12:35:51;23.05;;;9.55;;
24279;SDS011;12395;42.808;23.408;2023-02-28T12:40:52;20.98;;;9.57;;
24279;SDS011;12395;42.808;23.408;2023-02-28T12:43:22;19.70;;;9.77;;
24279;SDS011;12395;42.808;23.408;2023-02-28T12:48:58;18.50;;;8.27;;
24279;SDS011;12395;42.808;23.408;2023-02-28T12:51:29;21.25;;;9.10;;
24279;SDS011;12395;42.808;23.408;2023-02-28T12:59:40;22.15;;;9.60;;
24279;SDS011;12395;42.808;23.408;2023-02-28T13:10:52;21.00;;;9.63;;
24279;SDS011;12395;42.808;23.408;2023-02-28T13:13:22;22.63;;;10.05;;
24279;SDS011;12395;42.808;23.408;2023-02-28T13:16:02;23.20;;;9.60;;
24279;SDS011;12395;42.808;23.408;2023-02-28T13:18:34;22.92;;;9.90;;
24279;SDS011;12395;42.808;23.408;2023-02-28T13:21:04;21.00;;;9.38;;
24279;SDS011;12395;42.808;23.408;2023-02-28T13:26:12;24.80;;;10.45;;
24279;SDS011;12395;42.808;23.408;2023-02-28T13:28:58;16.08;;;6.32;;
24279;SDS011;12395;42.808;23.408;2023-02-28T13:31:26;23.60;;;9.63;;
24279;SDS011;12395;42.808;23.408;2023-02-28T13:36:30;7.43;;;2.80;;
24279;SDS011;12395;42.808;23.408;2023-02-28T13:38:57;9.35;;;2.95;;
24279;SDS011;12395;42.808;23.408;2023-02-28T13:41:47;9.70;;;4.03;;
24279;SDS011;12395;42.808;23.408;2023-02-28T13:44:17;9.10;;;3.78;;
24279;SDS011;12395;42.808;23.408;2023-02-28T14:00:52;5.93;;;2.78;;
24279;SDS011;12395;42.808;23.408;2023-02-28T14:17:14;8.13;;;2.63;;
24279;SDS011;12395;42.808;23.408;2023-02-28T14:19:43;7.05;;;2.70;;
24279;SDS011;12395;42.808;23.408;2023-02-28T14:36:38;9.10;;;3.17;;
24279;SDS011;12395;42.808;23.408;2023-02-28T14:39:06;6.95;;;2.88;;
24279;SDS011;12395;42.808;23.408;2023-02-28T14:41:36;7.82;;;2.70;;
24279;SDS011;12395;42.808;23.408;2023-02-28T14:46:45;8.18;;;2.70;;
24279;SDS011;12395;42.808;23.408;2023-02-28T14:52:17;10.18;;;3.00;;
24279;SDS011;12395;42.808;23.408;2023-02-28T14:54:45;7.47;;;3.20;;
24279;SDS011;12395;42.808;23.408;2023-02-28T14:57:29;7.40;;;3.00;;
24279;SDS011;12395;42.808;23.408;2023-02-28T15:02:36;5.90;;;2.78;;
24279;SDS011;12395;42.808;23.408;2023-02-28T15:07:37;7.03;;;2.45;;
24279;SDS011;12395;42.808;23.408;2023-02-28T15:10:10;6.25;;;2.72;;
24279;SDS011;12395;42.808;23.408;2023-02-28T15:13:06;6.32;;;2.67;;
24279;SDS011;12395;42.808;23.408;2023-02-28T15:15:39;9.45;;;3.10;;
24279;SDS011;12395;42.808;23.408;2023-02-28T15:21:04;6.85;;;3.00;;
24279;SDS011;12395;42.808;23.408;2023-02-28T15:23:32;7.50;;;2.80;;
24279;SDS011;12395;42.808;23.408;2023-02-28T15:26:01;5.55;;;2.95;;
24279;SDS011;12395;42.808;23.408;2023-02-28T15:28:27;8.95;;;2.67;;
24279;SDS011;12395;42.808;23.408;2023-02-28T15:31:01;6.97;;;2.75;;
24279;SDS011;12395;42.808;23.408;2023-02-28T15:33:29;6.90;;;2.40;;
24279;SDS011;12395;42.808;23.408;2023-02-28T15:36:06;9.02;;;2.20;;
24279;SDS011;12395;42.808;23.408;2023-02-28T15:38:34;7.18;;;2.58;;
24279;SDS011;12395;42.808;23.408;2023-02-28T15:41:01;7.50;;;2.67;;
24279;SDS011;12395;42.808;23.408;2023-02-28T15:43:33;5.07;;;2.35;;
24279;SDS011;12395;42.808;23.408;2023-02-28T15:46:04;5.50;;;1.98;;
24279;SDS011;12395;42.808;23.408;2023-02-28T15:48:33;6.50;;;2.35;;
24279;SDS011;12395;42.808;23.408;2023-02-28T15:53:41;5.82;;;2.30;;
24279;SDS011;12395;42.808;23.408;2023-02-28T15:56:34;3.42;;;1.50;;
24279;SDS011;12395;42.808;23.408;2023-02-28T15:59:04;6.05;;;1.77;;
24279;SDS011;12395;42.808;23.408;2023-02-28T16:01:35;3.85;;;1.70;;
24279;SDS011;12395;42.808;23.408;2023-02-28T16:04:06;4.10;;;1.70;;
24279;SDS011;12395;42.808;23.408;2023-02-28T16:06:40;11.05;;;1.73;;
24279;SDS011;12395;42.808;23.408;2023-02-28T16:09:08;4.00;;;1.45;;
24279;SDS011;12395;42.808;23.408;2023-02-28T16:11:37;3.30;;;1.42;;
24279;SDS011;12395;42.808;23.408;2023-02-28T16:14:08;3.40;;;1.40;;
24279;SDS011;12395;42.808;23.408;2023-02-28T16:16:41;6.25;;;1.50;;
24279;SDS011;12395;42.808;23.408;2023-02-28T16:19:08;3.63;;;1.45;;
24279;SDS011;12395;42.808;23.408;2023-02-28T16:21:34;5.00;;;1.70;;
24279;SDS011;12395;42.808;23.408;2023-02-28T16:23:59;5.07;;;1.75;;
24279;SDS011;12395;42.808;23.408;2023-02-28T16:26:25;5.70;;;1.92;;
24279;SDS011;12395;42.808;23.408;2023-02-28T16:28:52;4.38;;;1.50;;
24279;SDS011;12395;42.808;23.408;2023-02-28T16:31:17;3.58;;;1.55;;
24279;SDS011;12395;42.808;23.408;2023-02-28T16:33:44;5.70;;;1.92;;
24279;SDS011;12395;42.808;23.408;2023-02-28T16:36:22;6.40;;;1.60;;
24279;SDS011;12395;42.808;23.408;2023-02-28T16:38:53;4.40;;;1.40;;
24279;SDS011;12395;42.808;23.408;2023-02-28T16:41:24;2.35;;;1.27;;
24279;SDS011;12395;42.808;23.408;2023-02-28T16:43:52;4.35;;;1.27;;
24279;SDS011;12395;42.808;23.408;2023-02-28T16:46:25;4.53;;;1.33;;
24279;SDS011;12395;42.808;23.408;2023-02-28T16:48:55;3.70;;;1.30;;
24279;SDS011;12395;42.808;23.408;2023-02-28T16:51:20;3.05;;;1.40;;
24279;SDS011;12395;42.808;23.408;2023-02-28T16:53:45;4.15;;;1.27;;
24279;SDS011;12395;42.808;23.408;2023-02-28T16:56:22;5.43;;;1.50;;
24279;SDS011;12395;42.808;23.408;2023-02-28T16:58:49;5.93;;;3.03;;
24279;SDS011;12395;42.808;23.408;2023-02-28T17:01:15;5.38;;;1.58;;
24279;SDS011;12395;42.808;23.408;2023-02-28T17:03:42;3.17;;;1.40;;
24279;SDS011;12395;42.808;23.408;2023-02-28T17:06:21;2.75;;;1.52;;
24279;SDS011;12395;42.808;23.408;2023-02-28T17:08:49;3.75;;;1.10;;
24279;SDS011;12395;42.808;23.408;2023-02-28T17:11:15;4.78;;;1.45;;
24279;SDS011;12395;42.808;23.408;2023-02-28T17:13:41;6.38;;;2.08;;
24279;SDS011;12395;42.808;23.408;2023-02-28T17:16:10;4.97;;;1.42;;
24279;SDS011;12395;42.808;23.408;2023-02-28T17:18:45;5.55;;;1.50;;
24279;SDS011;12395;42.808;23.408;2023-02-28T17:21:16;2.80;;;1.60;;
24279;SDS011;12395;42.808;23.408;2023-02-28T17:23:42;5.05;;;1.60;;
24279;SDS011;12395;42.808;23.408;2023-02-28T17:26:15;3.50;;;1.60;;
24279;SDS011;12395;42.808;23.408;2023-02-28T17:28:44;4.43;;;1.63;;
24279;SDS011;12395;42.808;23.408;2023-02-28T17:31:10;3.00;;;1.45;;